Time;durP1;ratioP1;P1;durP2;ratioP2;P2;SDS_P1;SDS_P2;PMS_P1;PMS_P2;Temp;Humidity;BMP_temperature;BMP_pressure;BME280_temperature;BME280_humidity;BME280_pressure;Samples;Min_cycle;Max_cycle;Signal;HPM_P1;HPM_P2
2022/11/01 00:00:59;;;;;;;27.55;11.88;;;;;;;;;;5284320;27;20004;-70
2022/11/01 00:03:24;;;;;;;21.52;10.93;;;;;;;;;;5306385;27;20036;-70
2022/11/01 00:05:50;;;;;;;16.25;9.88;;;;;;;;;;5304116;27;20000;-71
2022/11/01 00:08:15;;;;;;;19.92;9.80;;;;;;;;;;5286454;27;20028;-71
2022/11/01 00:10:40;;;;;;;24.92;12.00;;;;;;;;;;5306411;27;20001;-70
2022/11/01 00:13:05;;;;;;;25.67;11.63;;;;;;;;;;5306932;27;20121;-69
2022/11/01 00:15:30;;;;;;;18.40;10.40;;;;;;;;;;5306383;27;20486;-70
2022/11/01 00:17:55;;;;;;;18.02;10.18;;;;;;;;;;5304741;27;20029;-70
2022/11/01 00:20:21;;;;;;;19.60;9.33;;;;;;;;;;5305814;27;20098;-70
2022/11/01 00:22:46;;;;;;;22.25;9.68;;;;;;;;;;5306468;27;20088;-70
2022/11/01 00:25:11;;;;;;;20.60;10.23;;;;;;;;;;5306277;27;20044;-70
2022/11/01 00:27:37;;;;;;;18.65;10.80;;;;;;;;;;5304563;27;20015;-70
2022/11/01 00:30:02;;;;;;;23.12;11.65;;;;;;;;;;5284051;27;20001;-69
2022/11/01 00:32:27;;;;;;;18.92;9.32;;;;;;;;;;5303268;27;20001;-69
2022/11/01 00:34:52;;;;;;;22.15;10.13;;;;;;;;;;5302175;27;20361;-69
2022/11/01 00:37:17;;;;;;;22.52;10.43;;;;;;;;;;5303702;27;20011;-68
2022/11/01 00:39:43;;;;;;;25.00;10.90;;;;;;;;;;5303271;27;20056;-69
2022/11/01 00:42:08;;;;;;;20.73;10.32;;;;;;;;;;5306057;27;20424;-69
2022/11/01 00:44:33;;;;;;;18.80;10.15;;;;;;;;;;5305978;27;20013;-69
2022/11/01 00:46:58;;;;;;;20.52;11.32;;;;;;;;;;5284037;27;20005;-68
2022/11/01 00:49:23;;;;;;;37.63;10.68;;;;;;;;;;5304464;27;19998;-69
2022/11/01 00:51:49;;;;;;;18.90;9.52;;;;;;;;;;5306432;27;20001;-68
2022/11/01 00:54:14;;;;;;;14.73;8.90;;;;;;;;;;5303812;27;20001;-68
2022/11/01 00:56:39;;;;;;;24.12;9.15;;;;;;;;;;5303681;27;20005;-68
2022/11/01 00:59:04;;;;;;;16.42;9.25;;;;;;;;;;5303876;27;20001;-68
2022/11/01 01:01:31;;;;;;;17.40;8.73;;;;;;;;;;5285986;27;20008;-69
2022/11/01 01:03:56;;;;;;;16.52;8.70;;;;;;;;;;5286086;27;20076;-69
2022/11/01 01:06:21;;;;;;;15.57;8.65;;;;;;;;;;5305984;27;20001;-69
2022/11/01 01:08:46;;;;;;;16.52;8.43;;;;;;;;;;5303469;27;20034;-69
2022/11/01 01:11:12;;;;;;;14.23;8.10;;;;;;;;;;5305153;27;20315;-69
2022/11/01 01:13:37;;;;;;;15.38;8.38;;;;;;;;;;5306074;27;20384;-69
2022/11/01 01:16:06;;;;;;;20.55;8.82;;;;;;;;;;5303771;27;20012;-69
2022/11/01 01:18:31;;;;;;;15.80;8.32;;;;;;;;;;5303682;27;20001;-69
2022/11/01 01:21:00;;;;;;;15.70;9.30;;;;;;;;;;5306382;27;20046;-69
2022/11/01 01:23:26;;;;;;;16.70;8.50;;;;;;;;;;5303440;27;20037;-69
2022/11/01 01:25:51;;;;;;;14.25;7.95;;;;;;;;;;5304426;27;19996;-69
2022/11/01 01:28:16;;;;;;;18.00;8.90;;;;;;;;;;5304194;27;20295;-70
2022/11/01 01:30:41;;;;;;;16.30;8.40;;;;;;;;;;5303922;27;20150;-69
2022/11/01 01:33:06;;;;;;;18.40;8.77;;;;;;;;;;5303329;27;20319;-69
2022/11/01 01:35:32;;;;;;;15.93;8.23;;;;;;;;;;5303519;27;20010;-70
2022/11/01 01:37:57;;;;;;;14.27;8.43;;;;;;;;;;5303575;27;20004;-70
2022/11/01 01:40:22;;;;;;;13.73;8.18;;;;;;;;;;5305318;27;20403;-70
2022/11/01 01:42:47;;;;;;;11.77;7.70;;;;;;;;;;5286066;27;20001;-70
2022/11/01 01:45:22;;;;;;;12.95;7.53;;;;;;;;;;5283519;27;20279;-70
2022/11/01 01:47:49;;;;;;;17.60;8.25;;;;;;;;;;5286128;27;20089;-69
2022/11/01 01:50:14;;;;;;;10.60;7.20;;;;;;;;;;5303269;27;20295;-69
2022/11/01 01:52:51;;;;;;;19.87;7.87;;;;;;;;;;5305492;27;20001;-69
2022/11/01 01:55:19;;;;;;;15.32;7.68;;;;;;;;;;5306163;27;20127;-69
2022/11/01 01:57:45;;;;;;;13.85;7.12;;;;;;;;;;5305691;27;20052;-69
2022/11/01 02:00:10;;;;;;;12.43;7.68;;;;;;;;;;5305850;27;20001;-69
2022/11/01 02:02:36;;;;;;;14.25;8.02;;;;;;;;;;5304842;27;20039;-69
2022/11/01 02:05:06;;;;;;;15.00;8.60;;;;;;;;;;5302784;27;20023;-70
2022/11/01 02:07:31;;;;;;;16.50;8.57;;;;;;;;;;5305755;27;20005;-69
2022/11/01 02:09:56;;;;;;;15.70;7.57;;;;;;;;;;5303317;27;20370;-69
2022/11/01 02:12:23;;;;;;;11.95;7.35;;;;;;;;;;5282994;27;20417;-69
2022/11/01 02:14:48;;;;;;;14.82;7.65;;;;;;;;;;5304955;27;20004;-68
2022/11/01 02:17:20;;;;;;;14.63;7.45;;;;;;;;;;5302843;27;20015;-67
2022/11/01 02:20:04;;;;;;;17.30;6.90;;;;;;;;;;5305760;27;20366;-68
2022/11/01 02:22:49;;;;;;;15.75;7.03;;;;;;;;;;5305542;27;20015;-69
2022/11/01 02:25:14;;;;;;;11.65;6.60;;;;;;;;;;5305796;27;20011;-68
2022/11/01 02:27:48;;;;;;;13.05;6.07;;;;;;;;;;5302981;27;20000;-68
2022/11/01 02:30:19;;;;;;;10.32;6.03;;;;;;;;;;5304690;27;20096;-69
2022/11/01 02:32:47;;;;;;;9.18;5.90;;;;;;;;;;5305394;27;20065;-69
2022/11/01 02:35:22;;;;;;;14.32;6.78;;;;;;;;;;5303494;27;20356;-68
2022/11/01 02:38:00;;;;;;;12.02;5.65;;;;;;;;;;5303454;27;20001;-68
2022/11/01 02:40:25;;;;;;;14.68;5.10;;;;;;;;;;5303397;27;20031;-68
2022/11/01 02:42:52;;;;;;;9.93;5.32;;;;;;;;;;5303238;27;20012;-68
2022/11/01 02:45:28;;;;;;;18.30;5.70;;;;;;;;;;5304063;27;20521;-68
2022/11/01 02:48:00;;;;;;;11.10;4.53;;;;;;;;;;5283816;27;20008;-68
2022/11/01 02:50:27;;;;;;;10.95;5.20;;;;;;;;;;5303968;27;20005;-68
2022/11/01 02:52:53;;;;;;;8.55;4.80;;;;;;;;;;5303574;27;20015;-68
2022/11/01 02:55:28;;;;;;;15.02;5.80;;;;;;;;;;5302160;27;20001;-68
2022/11/01 02:58:00;;;;;;;10.93;5.07;;;;;;;;;;5305709;27;19989;-68
2022/11/01 03:00:30;;;;;;;11.50;4.68;;;;;;;;;;5304626;27;20063;-69
2022/11/01 03:03:05;;;;;;;10.63;4.90;;;;;;;;;;5284710;27;20189;-68
2022/11/01 03:05:36;;;;;;;7.03;3.97;;;;;;;;;;5302643;27;20023;-69
2022/11/01 03:08:03;;;;;;;8.88;4.22;;;;;;;;;;5303466;27;20036;-69
2022/11/01 03:10:49;;;;;;;15.27;4.30;;;;;;;;;;5303134;27;20001;-69
2022/11/01 03:13:28;;;;;;;11.27;3.22;;;;;;;;;;5265036;27;20008;-69
2022/11/01 03:16:17;;;;;;;8.55;2.83;;;;;;;;;;5305581;27;19993;-69
2022/11/01 03:18:51;;;;;;;8.50;2.30;;;;;;;;;;5306944;27;20048;-69
2022/11/01 03:21:20;;;;;;;10.05;3.28;;;;;;;;;;5306678;27;20021;-68
2022/11/01 03:23:50;;;;;;;5.20;2.00;;;;;;;;;;5304741;27;20280;-68
2022/11/01 03:26:18;;;;;;;5.50;2.05;;;;;;;;;;5303981;27;20038;-69
2022/11/01 03:28:50;;;;;;;4.68;1.60;;;;;;;;;;5305837;27;20012;-69
2022/11/01 03:31:20;;;;;;;4.37;1.98;;;;;;;;;;5304285;27;20006;-68
2022/11/01 03:33:55;;;;;;;4.55;2.30;;;;;;;;;;5304076;27;20032;-68
2022/11/01 03:36:22;;;;;;;5.55;1.42;;;;;;;;;;5306504;27;20338;-69
2022/11/01 03:39:10;;;;;;;5.20;1.35;;;;;;;;;;5306273;27;20039;-68
2022/11/01 03:41:37;;;;;;;3.33;1.15;;;;;;;;;;5306464;27;20032;-68
2022/11/01 03:44:03;;;;;;;6.00;1.40;;;;;;;;;;5306504;27;20042;-68
2022/11/01 03:46:28;;;;;;;4.72;1.30;;;;;;;;;;5304900;27;20013;-69
2022/11/01 03:48:53;;;;;;;3.55;1.27;;;;;;;;;;5307044;27;20017;-68
2022/11/01 03:51:18;;;;;;;4.05;1.52;;;;;;;;;;5306434;27;20023;-68
2022/11/01 03:53:44;;;;;;;10.38;1.65;;;;;;;;;;5306785;27;20050;-68
2022/11/01 03:56:09;;;;;;;4.72;1.50;;;;;;;;;;5286510;27;20001;-68
2022/11/01 03:58:44;;;;;;;10.90;2.20;;;;;;;;;;5304870;27;20027;-68
2022/11/01 04:01:11;;;;;;;5.47;1.45;;;;;;;;;;5286768;27;20376;-68
2022/11/01 04:03:36;;;;;;;7.72;2.42;;;;;;;;;;5284158;27;20079;-68
2022/11/01 04:06:02;;;;;;;5.87;2.12;;;;;;;;;;5303776;27;19997;-68
2022/11/01 04:08:27;;;;;;;5.40;1.55;;;;;;;;;;5304851;27;20016;-69
2022/11/01 04:10:52;;;;;;;6.55;1.92;;;;;;;;;;5306905;27;20001;-68
2022/11/01 04:13:17;;;;;;;8.50;2.55;;;;;;;;;;5306331;27;20423;-69
2022/11/01 04:21:14;;;;;;;12.82;2.58;;;;;;;;;;5306231;27;20034;-68
2022/11/01 04:23:40;;;;;;;13.98;2.03;;;;;;;;;;5305188;27;20051;-68
2022/11/01 04:26:06;;;;;;;8.35;1.50;;;;;;;;;;5303358;27;20036;-67
2022/11/01 04:28:31;;;;;;;12.30;2.25;;;;;;;;;;5306094;27;20050;-69
2022/11/01 04:30:56;;;;;;;6.53;1.33;;;;;;;;;;5306189;27;20001;-69
2022/11/01 04:33:21;;;;;;;7.80;1.65;;;;;;;;;;5305792;27;19997;-70
2022/11/01 04:35:46;;;;;;;7.18;2.53;;;;;;;;;;5305299;27;20307;-70
2022/11/01 04:38:12;;;;;;;9.63;2.10;;;;;;;;;;5306241;27;20001;-69
2022/11/01 04:40:37;;;;;;;9.18;2.00;;;;;;;;;;5305857;27;20070;-69
2022/11/01 04:43:02;;;;;;;13.02;2.10;;;;;;;;;;5306609;27;20031;-70
2022/11/01 04:45:27;;;;;;;15.82;2.12;;;;;;;;;;5306118;27;20000;-71
2022/11/01 04:48:00;;;;;;;11.95;1.70;;;;;;;;;;5306112;27;20001;-70
2022/11/01 04:50:25;;;;;;;7.37;2.30;;;;;;;;;;5305655;27;20004;-69
2022/11/01 04:52:50;;;;;;;13.40;2.95;;;;;;;;;;5306091;27;20016;-69
2022/11/01 04:55:15;;;;;;;9.85;2.75;;;;;;;;;;5306360;27;20373;-70
2022/11/01 04:57:41;;;;;;;14.15;2.80;;;;;;;;;;5305939;27;20289;-70
2022/11/01 05:00:10;;;;;;;10.70;2.20;;;;;;;;;;5305555;27;20043;-69
2022/11/01 05:02:35;;;;;;;10.95;2.40;;;;;;;;;;5284448;27;20001;-69
2022/11/01 05:05:00;;;;;;;10.48;2.67;;;;;;;;;;5304079;27;20015;-69
2022/11/01 05:07:27;;;;;;;10.85;2.47;;;;;;;;;;5305450;27;20158;-69
2022/11/01 05:09:52;;;;;;;10.73;2.65;;;;;;;;;;5306469;27;20084;-69
2022/11/01 05:12:18;;;;;;;17.27;4.07;;;;;;;;;;5304254;27;20005;-68
2022/11/01 05:14:43;;;;;;;10.35;2.30;;;;;;;;;;5304856;27;20009;-68
2022/11/01 05:17:08;;;;;;;13.80;2.47;;;;;;;;;;5306254;27;20130;-67
2022/11/01 05:19:33;;;;;;;11.43;2.22;;;;;;;;;;5304000;27;20009;-67
2022/11/01 05:21:58;;;;;;;10.45;2.35;;;;;;;;;;5305722;27;20001;-68
2022/11/01 05:24:24;;;;;;;9.02;2.40;;;;;;;;;;5305965;27;20019;-67
2022/11/01 05:26:49;;;;;;;11.00;2.87;;;;;;;;;;5283656;27;20369;-67
2022/11/01 05:29:14;;;;;;;15.60;3.28;;;;;;;;;;5303489;27;20025;-68
2022/11/01 05:31:39;;;;;;;9.63;3.35;;;;;;;;;;5305620;27;20001;-68
2022/11/01 05:34:05;;;;;;;12.98;2.78;;;;;;;;;;5303285;27;20001;-68
2022/11/01 05:36:30;;;;;;;20.00;3.28;;;;;;;;;;5305624;27;20001;-68
2022/11/01 05:38:55;;;;;;;14.05;2.00;;;;;;;;;;5304823;27;20021;-68
2022/11/01 05:41:21;;;;;;;14.75;3.05;;;;;;;;;;5303638;27;19993;-69
2022/11/01 05:43:46;;;;;;;9.82;2.67;;;;;;;;;;5303062;27;20047;-68
2022/11/01 05:46:11;;;;;;;11.73;2.58;;;;;;;;;;5306119;27;20001;-68
2022/11/01 05:48:36;;;;;;;13.43;2.70;;;;;;;;;;5304780;27;20023;-69
2022/11/01 05:51:01;;;;;;;16.52;2.78;;;;;;;;;;5285625;27;20021;-68
2022/11/01 05:53:26;;;;;;;17.35;2.78;;;;;;;;;;5303813;27;20001;-69
2022/11/01 05:55:54;;;;;;;13.77;2.92;;;;;;;;;;5303771;27;20005;-68
2022/11/01 05:58:20;;;;;;;14.32;2.55;;;;;;;;;;5305037;27;20004;-67
2022/11/01 06:00:45;;;;;;;;;;;;;;;;;;5305402;27;20291;-68
2022/11/01 06:03:10;;;;;;;11.18;2.95;;;;;;;;;;5303355;27;19936;-68
2022/11/01 06:05:36;;;;;;;16.30;3.22;;;;;;;;;;5303622;27;20044;-68
2022/11/01 06:08:02;;;;;;;12.63;2.55;;;;;;;;;;5305592;27;20360;-68
2022/11/01 06:10:28;;;;;;;20.45;4.00;;;;;;;;;;5305445;27;20005;-68
2022/11/01 06:12:53;;;;;;;18.02;2.67;;;;;;;;;;5303039;27;20039;-68
2022/11/01 06:15:18;;;;;;;14.48;3.28;;;;;;;;;;5302214;27;20020;-69
2022/11/01 06:17:43;;;;;;;19.70;5.03;;;;;;;;;;5283219;27;20002;-69
2022/11/01 06:20:10;;;;;;;14.87;2.85;;;;;;;;;;5304261;27;20375;-67
2022/11/01 06:22:35;;;;;;;15.77;2.67;;;;;;;;;;5302669;27;20097;-67
2022/11/01 06:25:00;;;;;;;;;;;;;;;;;;5305276;27;20381;-68
2022/11/01 06:27:26;;;;;;;18.55;3.45;;;;;;;;;;5304881;27;19927;-68
2022/11/01 06:29:51;;;;;;;18.05;4.10;;;;;;;;;;5304260;27;20336;-68
2022/11/01 06:32:17;;;;;;;14.82;3.80;;;;;;;;;;5282904;27;20020;-68
2022/11/01 06:34:42;;;;;;;15.57;3.00;;;;;;;;;;5302323;27;20001;-68
2022/11/01 06:37:07;;;;;;;19.85;3.58;;;;;;;;;;5304574;27;20419;-68
2022/11/01 06:39:32;;;;;;;14.23;3.35;;;;;;;;;;5302921;27;20017;-68
2022/11/01 06:41:57;;;;;;;15.90;4.78;;;;;;;;;;5305077;27;20307;-69
2022/11/01 06:44:23;;;;;;;14.80;3.17;;;;;;;;;;5284516;27;20013;-69
2022/11/01 06:46:48;;;;;;;13.93;2.83;;;;;;;;;;5284705;27;20001;-69
2022/11/01 06:49:13;;;;;;;21.55;3.37;;;;;;;;;;5304720;27;20043;-68
2022/11/01 06:51:38;;;;;;;17.87;4.68;;;;;;;;;;5285021;27;20008;-69
2022/11/01 06:54:03;;;;;;;;;;;;;;;;;;5305593;27;20031;-68
2022/11/01 06:56:29;;;;;;;11.07;2.72;;;;;;;;;;5282255;27;19936;-68
2022/11/01 06:58:54;;;;;;;15.32;3.80;;;;;;;;;;5304914;27;20295;-69
2022/11/01 07:01:20;;;;;;;18.90;3.25;;;;;;;;;;5304265;27;20039;-68
2022/11/01 07:03:50;;;;;;;19.45;4.00;;;;;;;;;;5301763;27;20390;-68
2022/11/01 07:06:16;;;;;;;19.67;3.95;;;;;;;;;;5302529;27;20008;-68
2022/11/01 07:08:41;;;;;;;;;;;;;;;;;;5304770;27;20002;-68
2022/11/01 07:11:06;;;;;;;19.70;3.30;;;;;;;;;;5284999;27;19929;-69
2022/11/01 07:13:33;;;;;;;15.55;4.05;;;;;;;;;;5305060;27;20025;-67
2022/11/01 07:16:00;;;;;;;17.87;3.78;;;;;;;;;;5303901;27;20045;-68
2022/11/01 07:18:25;;;;;;;16.20;4.03;;;;;;;;;;5285150;27;20387;-68
2022/11/01 07:20:50;;;;;;;;;;;;;;;;;;5304125;27;20015;-68
2022/11/01 07:23:16;;;;;;;12.98;2.87;;;;;;;;;;5301573;27;19939;-69
2022/11/01 07:25:41;;;;;;;19.60;3.60;;;;;;;;;;5302131;27;20020;-68
2022/11/01 07:28:07;;;;;;;19.65;3.90;;;;;;;;;;5304857;27;20045;-68
2022/11/01 07:30:33;;;;;;;26.62;4.87;;;;;;;;;;5304469;27;20002;-68
2022/11/01 07:32:58;;;;;;;;;;;;;;;;;;5284091;27;20003;-67
2022/11/01 07:35:23;;;;;;;16.40;4.25;;;;;;;;;;5305161;27;19999;-68
2022/11/01 07:37:48;;;;;;;18.87;3.30;;;;;;;;;;5304527;27;20005;-69
2022/11/01 07:40:13;;;;;;;15.30;3.10;;;;;;;;;;5301823;27;20043;-68
2022/11/01 07:42:43;;;;;;;17.83;3.92;;;;;;;;;;5285182;27;20018;-69
2022/11/01 07:45:08;;;;;;;22.52;3.33;;;;;;;;;;5304453;27;20008;-68
2022/11/01 07:47:34;;;;;;;;;;;;;;;;;;5304343;27;20001;-67
2022/11/01 07:49:59;;;;;;;15.63;2.72;;;;;;;;;;5304284;27;20207;-68
2022/11/01 07:52:24;;;;;;;13.60;3.75;;;;;;;;;;5303507;27;20001;-68
2022/11/01 07:54:49;;;;;;;18.50;4.75;;;;;;;;;;5301854;27;20050;-69
2022/11/01 07:57:14;;;;;;;21.23;3.17;;;;;;;;;;5302448;27;20092;-69
2022/11/01 07:59:39;;;;;;;21.42;3.60;;;;;;;;;;5305307;27;20016;-68
2022/11/01 08:02:04;;;;;;;14.13;3.95;;;;;;;;;;5303677;27;20053;-69
2022/11/01 08:04:30;;;;;;;;;;;;;;;;;;5306600;27;20007;-69
2022/11/01 08:06:55;;;;;;;17.55;3.47;;;;;;;;;;5283696;27;19929;-68
2022/11/01 08:09:23;;;;;;;;;;;;;;;;;;5303408;27;20132;-68
2022/11/01 08:11:48;;;;;;;22.05;3.83;;;;;;;;;;5284834;27;19947;-69
2022/11/01 08:14:13;;;;;;;;;;;;;;;;;;5304806;27;20379;-68
2022/11/01 08:16:38;;;;;;;20.77;4.37;;;;;;;;;;5306093;27;19927;-68
2022/11/01 08:19:04;;;;;;;15.57;3.72;;;;;;;;;;5284854;27;20001;-68
2022/11/01 08:21:29;;;;;;;22.35;4.00;;;;;;;;;;5303691;27;20097;-69
2022/11/01 08:23:54;;;;;;;15.57;3.10;;;;;;;;;;5302987;27;20096;-68
2022/11/01 08:26:19;;;;;;;15.53;3.63;;;;;;;;;;5305711;27;20097;-69
2022/11/01 08:28:44;;;;;;;19.60;4.07;;;;;;;;;;5305764;27;20480;-68
2022/11/01 08:31:10;;;;;;;13.35;2.97;;;;;;;;;;5305309;27;20043;-68
2022/11/01 08:33:35;;;;;;;18.70;2.85;;;;;;;;;;5305224;27;20012;-68
2022/11/01 08:36:00;;;;;;;14.07;4.45;;;;;;;;;;5283431;27;20008;-68
2022/11/01 08:38:26;;;;;;;22.65;3.40;;;;;;;;;;5283274;27;20073;-68
2022/11/01 08:40:51;;;;;;;15.48;3.58;;;;;;;;;;5305207;27;20054;-67
2022/11/01 08:43:17;;;;;;;14.10;3.90;;;;;;;;;;5305428;27;20005;-69
2022/11/01 08:45:42;;;;;;;20.40;4.75;;;;;;;;;;5285805;27;20008;-67
2022/11/01 08:48:07;;;;;;;21.75;3.37;;;;;;;;;;5304188;27;20002;-67
2022/11/01 08:50:33;;;;;;;16.70;3.62;;;;;;;;;;5283444;27;20001;-70
2022/11/01 08:53:02;;;;;;;21.52;4.45;;;;;;;;;;5305671;27;20311;-70
2022/11/01 08:55:27;;;;;;;13.73;2.83;;;;;;;;;;5285571;27;20053;-68
2022/11/01 08:57:53;;;;;;;23.02;4.00;;;;;;;;;;5305380;27;20001;-69
2022/11/01 09:00:18;;;;;;;17.25;3.78;;;;;;;;;;5286225;27;20030;-70
2022/11/01 09:02:43;;;;;;;21.83;3.40;;;;;;;;;;5305542;27;20002;-68
2022/11/01 09:05:08;;;;;;;16.62;3.17;;;;;;;;;;5305531;27;20020;-68
2022/11/01 09:07:34;;;;;;;21.37;4.78;;;;;;;;;;5303737;27;20011;-68
2022/11/01 09:09:59;;;;;;;23.20;5.25;;;;;;;;;;5304980;27;20001;-68
2022/11/01 09:12:24;;;;;;;17.92;4.20;;;;;;;;;;5305073;27;20012;-69
2022/11/01 09:14:50;;;;;;;12.40;3.40;;;;;;;;;;5285909;27;20444;-68
2022/11/01 09:17:15;;;;;;;14.82;3.10;;;;;;;;;;5305318;27;20002;-68
2022/11/01 09:19:40;;;;;;;19.83;3.87;;;;;;;;;;5305385;27;20007;-68
2022/11/01 09:22:05;;;;;;;24.20;3.62;;;;;;;;;;5303682;27;20001;-67
2022/11/01 09:24:30;;;;;;;15.10;4.00;;;;;;;;;;5303330;27;20011;-67
2022/11/01 09:26:56;;;;;;;16.17;3.60;;;;;;;;;;5305362;27;20029;-67
2022/11/01 09:29:21;;;;;;;19.65;4.62;;;;;;;;;;5303260;27;20009;-67
2022/11/01 09:31:49;;;;;;;15.65;3.60;;;;;;;;;;5302736;27;20028;-67
2022/11/01 09:34:14;;;;;;;16.17;3.90;;;;;;;;;;5305696;27;20005;-68
2022/11/01 09:36:39;;;;;;;20.12;3.65;;;;;;;;;;5305235;27;20011;-68
2022/11/01 09:39:05;;;;;;;21.67;4.53;;;;;;;;;;5304906;27;20005;-68
2022/11/01 09:41:44;;;;;;;18.00;3.83;;;;;;;;;;5304052;27;20004;-67
2022/11/01 09:44:13;;;;;;;24.02;4.15;;;;;;;;;;5283048;27;19999;-67
2022/11/01 09:46:42;;;;;;;23.48;4.30;;;;;;;;;;5304897;27;20001;-68
2022/11/01 09:49:10;;;;;;;23.55;3.95;;;;;;;;;;5302929;27;20307;-68
2022/11/01 09:51:35;;;;;;;22.77;5.18;;;;;;;;;;5303297;27;20016;-68
2022/11/01 09:54:03;;;;;;;16.95;3.28;;;;;;;;;;5305736;27;20002;-68
2022/11/01 09:56:37;;;;;;;21.30;4.07;;;;;;;;;;5304977;27;20001;-68
2022/11/01 09:59:02;;;;;;;20.75;4.20;;;;;;;;;;5283186;27;20060;-68
2022/11/01 10:01:27;;;;;;;19.30;4.05;;;;;;;;;;5304978;27;20028;-69
2022/11/01 10:03:52;;;;;;;21.87;4.78;;;;;;;;;;5305169;27;20005;-69
2022/11/01 10:06:18;;;;;;;18.80;3.23;;;;;;;;;;5285388;27;20082;-69
2022/11/01 10:08:50;;;;;;;19.30;3.28;;;;;;;;;;5303985;27;20115;-68
2022/11/01 10:11:34;;;;;;;16.05;3.00;;;;;;;;;;5306529;27;19997;-69
2022/11/01 10:14:21;;;;;;;22.48;4.03;;;;;;;;;;5303072;27;20016;-68
2022/11/01 10:16:53;;;;;;;19.40;3.15;;;;;;;;;;5303567;27;20127;-69
2022/11/01 10:19:20;;;;;;;17.77;3.03;;;;;;;;;;5305452;27;20007;-69
2022/11/01 10:21:53;;;;;;;17.42;3.75;;;;;;;;;;5303090;27;20001;-68
2022/11/01 10:24:30;;;;;;;17.05;3.37;;;;;;;;;;5304533;27;20350;-67
2022/11/01 10:27:01;;;;;;;22.30;4.03;;;;;;;;;;5302785;27;20019;-69
2022/11/01 10:29:34;;;;;;;18.55;3.80;;;;;;;;;;5302836;27;20024;-69
2022/11/01 10:32:01;;;;;;;19.75;3.10;;;;;;;;;;5285125;27;20005;-68
2022/11/01 10:34:32;;;;;;;24.02;3.83;;;;;;;;;;5303082;27;20001;-69
2022/11/01 10:37:27;;;;;;;17.83;3.17;;;;;;;;;;5304929;27;20028;-69
2022/11/01 10:39:58;;;;;;;18.05;3.42;;;;;;;;;;5278104;27;20017;-68
2022/11/01 10:42:26;;;;;;;18.80;4.05;;;;;;;;;;5284924;27;20013;-68
2022/11/01 10:44:54;;;;;;;17.87;4.53;;;;;;;;;;5304452;27;20046;-70
2022/11/01 10:47:20;;;;;;;13.88;3.30;;;;;;;;;;5304977;27;20034;-68
2022/11/01 10:49:47;;;;;;;14.15;3.20;;;;;;;;;;5282641;27;20001;-69
2022/11/01 10:52:14;;;;;;;17.60;3.75;;;;;;;;;;5305268;27;20020;-69
2022/11/01 10:54:41;;;;;;;12.52;3.65;;;;;;;;;;5285509;27;20004;-68
2022/11/01 10:57:09;;;;;;;14.32;3.70;;;;;;;;;;5302118;27;20043;-69
2022/11/01 10:59:42;;;;;;;18.58;3.28;;;;;;;;;;5302039;27;20001;-69
2022/11/01 11:02:21;;;;;;;17.65;3.83;;;;;;;;;;5282703;27;20016;-70
2022/11/01 11:04:48;;;;;;;10.55;3.15;;;;;;;;;;5304809;27;19997;-70
2022/11/01 11:07:15;;;;;;;11.75;3.05;;;;;;;;;;5302742;27;20001;-69
2022/11/01 11:09:40;;;;;;;16.48;3.00;;;;;;;;;;5304795;27;20005;-69
2022/11/01 11:12:09;;;;;;;11.02;3.28;;;;;;;;;;5301827;27;20327;-69
2022/11/01 11:14:35;;;;;;;15.60;2.85;;;;;;;;;;5302229;27;20034;-69
2022/11/01 11:17:01;;;;;;;15.80;3.33;;;;;;;;;;5304718;27;20001;-70
2022/11/01 11:19:34;;;;;;;10.80;2.67;;;;;;;;;;5303568;27;20028;-70
2022/11/01 11:22:00;;;;;;;12.75;3.60;;;;;;;;;;5301686;27;20004;-69
2022/11/01 11:24:30;;;;;;;15.50;3.62;;;;;;;;;;5304608;27;20020;-69
2022/11/01 11:26:56;;;;;;;14.35;3.72;;;;;;;;;;5303919;27;20017;-69
2022/11/01 11:29:21;;;;;;;17.87;3.15;;;;;;;;;;5305339;27;20328;-69
2022/11/01 11:31:53;;;;;;;12.63;2.67;;;;;;;;;;5304860;27;20005;-69
2022/11/01 11:34:26;;;;;;;16.17;3.12;;;;;;;;;;5304596;27;20101;-69
2022/11/01 11:36:53;;;;;;;17.67;3.10;;;;;;;;;;5306311;27;20001;-69
2022/11/01 11:39:25;;;;;;;9.85;2.40;;;;;;;;;;5305487;27;20102;-69
2022/11/01 11:41:51;;;;;;;13.23;2.97;;;;;;;;;;5303839;27;20043;-69
2022/11/01 11:44:35;;;;;;;15.75;2.37;;;;;;;;;;5303866;27;20033;-68
2022/11/01 11:47:02;;;;;;;9.68;2.70;;;;;;;;;;5305418;27;20016;-69
2022/11/01 11:49:27;;;;;;;14.80;3.12;;;;;;;;;;5303360;27;20007;-69
2022/11/01 11:51:53;;;;;;;11.52;3.33;;;;;;;;;;5303574;27;20001;-68
2022/11/01 11:54:27;;;;;;;16.87;2.83;;;;;;;;;;5306049;27;20001;-70
2022/11/01 11:57:07;;;;;;;9.82;1.92;;;;;;;;;;5304951;27;20007;-69
2022/11/01 11:59:33;;;;;;;7.03;2.50;;;;;;;;;;5306104;27;20027;-69
2022/11/01 12:02:00;;;;;;;18.02;3.87;;;;;;;;;;5306024;27;20001;-70
2022/11/01 12:04:45;;;;;;;12.27;2.62;;;;;;;;;;5304063;27;20013;-69
2022/11/01 12:07:30;;;;;;;14.23;2.70;;;;;;;;;;5304299;27;20052;-69
2022/11/01 12:09:56;;;;;;;11.70;2.85;;;;;;;;;;5304060;27;20019;-69
2022/11/01 12:12:23;;;;;;;14.48;2.75;;;;;;;;;;5302173;27;20013;-70
2022/11/01 12:14:49;;;;;;;11.20;2.62;;;;;;;;;;5305693;27;20046;-69
2022/11/01 12:17:40;;;;;;;12.70;3.47;;;;;;;;;;5303527;27;20008;-69
2022/11/01 12:20:08;;;;;;;12.65;2.92;;;;;;;;;;5301410;27;20322;-69
2022/11/01 12:22:35;;;;;;;15.13;2.83;;;;;;;;;;5283067;27;20005;-69
2022/11/01 12:25:04;;;;;;;10.65;2.55;;;;;;;;;;5305677;27;20004;-69
2022/11/01 12:27:30;;;;;;;10.10;2.75;;;;;;;;;;5303361;27;20116;-68
2022/11/01 12:30:09;;;;;;;9.57;2.53;;;;;;;;;;5303640;27;20008;-69
2022/11/01 12:32:54;;;;;;;13.00;2.97;;;;;;;;;;5303733;27;20005;-71
2022/11/01 12:35:23;;;;;;;10.35;2.58;;;;;;;;;;5283660;27;20002;-69
2022/11/01 12:37:56;;;;;;;11.48;3.03;;;;;;;;;;5283237;27;20009;-70
2022/11/01 12:40:37;;;;;;;14.75;3.08;;;;;;;;;;5301660;27;20025;-68
2022/11/01 12:43:10;;;;;;;6.65;2.42;;;;;;;;;;5302985;27;20001;-69
2022/11/01 12:45:35;;;;;;;12.55;2.78;;;;;;;;;;5305604;27;20344;-69
2022/11/01 12:48:03;;;;;;;16.37;2.55;;;;;;;;;;5304748;27;20013;-68
2022/11/01 12:50:34;;;;;;;9.43;2.37;;;;;;;;;;5304754;27;20007;-69
2022/11/01 12:53:04;;;;;;;12.30;2.85;;;;;;;;;;5306003;27;20032;-69
2022/11/01 12:55:30;;;;;;;12.90;2.37;;;;;;;;;;5303179;27;20007;-69
2022/11/01 12:57:56;;;;;;;12.80;2.60;;;;;;;;;;5282974;27;20006;-69
2022/11/01 13:00:22;;;;;;;11.60;2.75;;;;;;;;;;5305620;27;20016;-68
2022/11/01 13:03:06;;;;;;;7.12;2.15;;;;;;;;;;5303320;27;20032;-69
2022/11/01 13:05:50;;;;;;;8.88;2.17;;;;;;;;;;5285762;27;20011;-69
2022/11/01 13:08:15;;;;;;;10.25;2.47;;;;;;;;;;5304216;27;20005;-68
2022/11/01 13:10:45;;;;;;;15.55;2.72;;;;;;;;;;5302702;27;20056;-68
2022/11/01 13:13:16;;;;;;;9.77;2.42;;;;;;;;;;5302711;27;20487;-69
2022/11/01 13:15:48;;;;;;;14.30;2.90;;;;;;;;;;5302802;27;20001;-68
2022/11/01 13:18:37;;;;;;;7.55;2.37;;;;;;;;;;5305663;27;20356;-68
2022/11/01 13:21:13;;;;;;;9.45;2.35;;;;;;;;;;5276013;27;20048;-68
2022/11/01 13:23:38;;;;;;;8.65;2.78;;;;;;;;;;5303789;27;20008;-68
2022/11/01 13:26:10;;;;;;;11.15;3.42;;;;;;;;;;5305209;27;20054;-69
2022/11/01 13:28:46;;;;;;;10.30;2.37;;;;;;;;;;5304508;27;19997;-68
2022/11/01 13:31:17;;;;;;;6.50;1.92;;;;;;;;;;5305525;27;20012;-67
2022/11/01 13:33:48;;;;;;;11.45;2.10;;;;;;;;;;5304898;27;20347;-69
2022/11/01 13:36:23;;;;;;;10.88;2.28;;;;;;;;;;5303292;27;20047;-69
2022/11/01 13:39:05;;;;;;;5.18;2.22;;;;;;;;;;5305411;27;20053;-69
2022/11/01 13:41:35;;;;;;;10.07;2.70;;;;;;;;;;5303127;27;20004;-69
2022/11/01 13:44:06;;;;;;;10.20;2.28;;;;;;;;;;5305502;27;20102;-69
2022/11/01 13:46:34;;;;;;;7.90;2.28;;;;;;;;;;5303909;27;20011;-68
2022/11/01 13:49:19;;;;;;;10.10;2.17;;;;;;;;;;5304103;27;20024;-69
2022/11/01 13:51:48;;;;;;;14.82;2.45;;;;;;;;;;5290248;27;20022;-69
2022/11/01 13:54:21;;;;;;;10.77;2.20;;;;;;;;;;5302757;27;20013;-68
2022/11/01 13:57:05;;;;;;;7.45;2.17;;;;;;;;;;5303139;27;19988;-69
2022/11/01 13:59:43;;;;;;;9.68;2.20;;;;;;;;;;5304813;27;20009;-68
2022/11/01 14:02:23;;;;;;;6.47;1.92;;;;;;;;;;5305247;27;19990;-69
2022/11/01 14:04:58;;;;;;;8.65;2.20;;;;;;;;;;5282229;27;20020;-69
2022/11/01 14:07:24;;;;;;;9.95;2.58;;;;;;;;;;5305016;27;20001;-69
2022/11/01 14:09:50;;;;;;;10.60;1.90;;;;;;;;;;5304307;27;20383;-69
2022/11/01 14:12:31;;;;;;;15.95;2.62;;;;;;;;;;5302937;27;20024;-68
2022/11/01 14:15:15;;;;;;;10.52;2.00;;;;;;;;;;5304929;27;20009;-68
2022/11/01 14:17:43;;;;;;;11.48;2.25;;;;;;;;;;5304820;27;20001;-67
2022/11/01 14:20:10;;;;;;;6.68;1.98;;;;;;;;;;5303830;27;20041;-68
2022/11/01 14:22:37;;;;;;;13.00;3.08;;;;;;;;;;5304479;27;20002;-69
2022/11/01 14:25:22;;;;;;;15.20;3.33;;;;;;;;;;5303131;27;20382;-68
2022/11/01 14:27:49;;;;;;;11.55;2.40;;;;;;;;;;5302155;27;20032;-69
2022/11/01 14:30:15;;;;;;;7.78;2.25;;;;;;;;;;5302001;27;20005;-69
2022/11/01 14:32:42;;;;;;;8.10;2.12;;;;;;;;;;5282636;27;20016;-69
2022/11/01 14:35:10;;;;;;;9.85;2.47;;;;;;;;;;5302315;27;20046;-68
2022/11/01 14:37:38;;;;;;;12.13;2.60;;;;;;;;;;5302317;27;20001;-69
2022/11/01 14:40:07;;;;;;;12.15;2.55;;;;;;;;;;5302957;27;20021;-68
2022/11/01 14:42:37;;;;;;;13.13;3.72;;;;;;;;;;5284822;27;20001;-69
2022/11/01 14:45:06;;;;;;;14.63;2.40;;;;;;;;;;5302457;27;20031;-68
2022/11/01 14:47:36;;;;;;;6.87;2.08;;;;;;;;;;5282599;27;20023;-69